sensor_id;sensor_type;location;lat;lon;timestamp;temperature;humidity
22364;DHT22;11349;53.412;-1.328;2023-04-06T00:00:31;13.70;99.90
22364;DHT22;11349;53.412;-1.328;2023-04-06T00:02:57;13.60;99.90
22364;DHT22;11349;53.412;-1.328;2023-04-06T00:05:23;13.80;99.90
22364;DHT22;11349;53.412;-1.328;2023-04-06T00:07:49;14.00;99.90
22364;DHT22;11349;53.412;-1.328;2023-04-06T00:10:16;14.00;99.90
22364;DHT22;11349;53.412;-1.328;2023-04-06T00:12:43;14.00;99.90
22364;DHT22;11349;53.412;-1.328;2023-04-06T00:15:09;13.90;99.90
22364;DHT22;11349;53.412;-1.328;2023-04-06T00:17:35;13.80;99.90
22364;DHT22;11349;53.412;-1.328;2023-04-06T00:20:01;13.60;99.90
22364;DHT22;11349;53.412;-1.328;2023-04-06T00:22:26;13.60;99.90
22364;DHT22;11349;53.412;-1.328;2023-04-06T00:24:52;13.60;99.90
22364;DHT22;11349;53.412;-1.328;2023-04-06T00:27:18;13.50;99.90
22364;DHT22;11349;53.412;-1.328;2023-04-06T00:29:44;13.70;99.90
22364;DHT22;11349;53.412;-1.328;2023-04-06T00:32:10;13.80;99.90
22364;DHT22;11349;53.412;-1.328;2023-04-06T00:34:36;13.70;99.90
22364;DHT22;11349;53.412;-1.328;2023-04-06T00:37:02;13.70;99.90
22364;DHT22;11349;53.412;-1.328;2023-04-06T00:39:27;13.50;99.90
22364;DHT22;11349;53.412;-1.328;2023-04-06T00:41:53;13.40;99.90
22364;DHT22;11349;53.412;-1.328;2023-04-06T00:44:20;13.50;99.90
22364;DHT22;11349;53.412;-1.328;2023-04-06T00:46:47;13.50;99.90
22364;DHT22;11349;53.412;-1.328;2023-04-06T00:49:12;13.30;99.90
22364;DHT22;11349;53.412;-1.328;2023-04-06T00:51:38;13.20;99.90
22364;DHT22;11349;53.412;-1.328;2023-04-06T00:54:04;13.30;99.90
22364;DHT22;11349;53.412;-1.328;2023-04-06T00:56:30;13.20;99.90
22364;DHT22;11349;53.412;-1.328;2023-04-06T00:58:56;13.10;99.90
22364;DHT22;11349;53.412;-1.328;2023-04-06T01:01:23;13.20;99.90
22364;DHT22;11349;53.412;-1.328;2023-04-06T01:03:50;13.20;99.90
22364;DHT22;11349;53.412;-1.328;2023-04-06T01:06:16;13.30;99.90
22364;DHT22;11349;53.412;-1.328;2023-04-06T01:08:41;13.30;99.90
22364;DHT22;11349;53.412;-1.328;2023-04-06T01:11:07;13.10;99.90
22364;DHT22;11349;53.412;-1.328;2023-04-06T01:13:33;13.20;99.90
22364;DHT22;11349;53.412;-1.328;2023-04-06T01:15:59;13.20;99.90
22364;DHT22;11349;53.412;-1.328;2023-04-06T01:18:28;13.10;99.90
22364;DHT22;11349;53.412;-1.328;2023-04-06T01:20:54;13.10;99.90
22364;DHT22;11349;53.412;-1.328;2023-04-06T01:23:20;13.10;99.90
22364;DHT22;11349;53.412;-1.328;2023-04-06T01:25:46;12.90;99.90
22364;DHT22;11349;53.412;-1.328;2023-04-06T01:28:11;12.70;99.90
22364;DHT22;11349;53.412;-1.328;2023-04-06T01:30:37;12.60;99.90
22364;DHT22;11349;53.412;-1.328;2023-04-06T01:33:03;12.50;99.90
22364;DHT22;11349;53.412;-1.328;2023-04-06T01:35:30;12.50;99.90
22364;DHT22;11349;53.412;-1.328;2023-04-06T01:37:56;12.40;99.90
22364;DHT22;11349;53.412;-1.328;2023-04-06T01:40:22;12.40;99.90
22364;DHT22;11349;53.412;-1.328;2023-04-06T01:42:47;12.30;99.90
22364;DHT22;11349;53.412;-1.328;2023-04-06T01:45:13;11.90;99.90
22364;DHT22;11349;53.412;-1.328;2023-04-06T01:47:39;11.60;99.90
22364;DHT22;11349;53.412;-1.328;2023-04-06T01:50:05;11.30;99.90
22364;DHT22;11349;53.412;-1.328;2023-04-06T01:52:33;11.00;99.90
22364;DHT22;11349;53.412;-1.328;2023-04-06T01:54:59;11.00;99.90
22364;DHT22;11349;53.412;-1.328;2023-04-06T01:57:24;10.90;99.90
22364;DHT22;11349;53.412;-1.328;2023-04-06T01:59:51;10.90;99.90
22364;DHT22;11349;53.412;-1.328;2023-04-06T02:02:17;10.90;99.90
22364;DHT22;11349;53.412;-1.328;2023-04-06T02:04:43;10.80;99.90
22364;DHT22;11349;53.412;-1.328;2023-04-06T02:07:08;10.80;99.90
22364;DHT22;11349;53.412;-1.328;2023-04-06T02:09:34;11.00;99.90
22364;DHT22;11349;53.412;-1.328;2023-04-06T02:12:00;11.10;99.90
22364;DHT22;11349;53.412;-1.328;2023-04-06T02:14:26;10.90;99.90
22364;DHT22;11349;53.412;-1.328;2023-04-06T02:16:52;10.90;99.90
22364;DHT22;11349;53.412;-1.328;2023-04-06T02:19:18;11.30;99.90
22364;DHT22;11349;53.412;-1.328;2023-04-06T02:21:44;11.60;99.90
22364;DHT22;11349;53.412;-1.328;2023-04-06T02:24:10;11.60;99.90
22364;DHT22;11349;53.412;-1.328;2023-04-06T02:26:36;11.70;99.90
22364;DHT22;11349;53.412;-1.328;2023-04-06T02:29:02;11.80;99.90
22364;DHT22;11349;53.412;-1.328;2023-04-06T02:31:28;11.70;99.90
22364;DHT22;11349;53.412;-1.328;2023-04-06T02:33:53;11.80;99.90
22364;DHT22;11349;53.412;-1.328;2023-04-06T02:36:19;11.90;99.90
22364;DHT22;11349;53.412;-1.328;2023-04-06T02:38:45;11.90;99.90
22364;DHT22;11349;53.412;-1.328;2023-04-06T02:41:11;11.60;99.90
22364;DHT22;11349;53.412;-1.328;2023-04-06T02:43:37;11.40;99.90
22364;DHT22;11349;53.412;-1.328;2023-04-06T02:46:02;11.40;99.90
22364;DHT22;11349;53.412;-1.328;2023-04-06T02:48:28;11.40;99.90
22364;DHT22;11349;53.412;-1.328;2023-04-06T02:50:54;11.30;99.90
22364;DHT22;11349;53.412;-1.328;2023-04-06T02:53:20;11.20;99.90
22364;DHT22;11349;53.412;-1.328;2023-04-06T02:55:45;11.20;99.90
22364;DHT22;11349;53.412;-1.328;2023-04-06T02:58:11;11.10;99.90
22364;DHT22;11349;53.412;-1.328;2023-04-06T03:00:37;11.00;99.90
22364;DHT22;11349;53.412;-1.328;2023-04-06T03:03:03;11.00;99.90
22364;DHT22;11349;53.412;-1.328;2023-04-06T03:05:29;11.00;99.90
22364;DHT22;11349;53.412;-1.328;2023-04-06T03:07:54;10.90;99.90
22364;DHT22;11349;53.412;-1.328;2023-04-06T03:10:20;10.80;99.90
22364;DHT22;11349;53.412;-1.328;2023-04-06T03:12:46;10.70;99.90
22364;DHT22;11349;53.412;-1.328;2023-04-06T03:15:12;10.70;99.90
22364;DHT22;11349;53.412;-1.328;2023-04-06T03:17:37;10.70;99.90
22364;DHT22;11349;53.412;-1.328;2023-04-06T03:20:04;10.70;99.90
22364;DHT22;11349;53.412;-1.328;2023-04-06T03:22:30;10.70;99.90
22364;DHT22;11349;53.412;-1.328;2023-04-06T03:24:56;10.70;99.90
22364;DHT22;11349;53.412;-1.328;2023-04-06T03:27:21;10.80;99.90
22364;DHT22;11349;53.412;-1.328;2023-04-06T03:29:47;10.80;99.90
22364;DHT22;11349;53.412;-1.328;2023-04-06T03:32:13;10.90;99.90
22364;DHT22;11349;53.412;-1.328;2023-04-06T03:34:39;10.80;99.90
22364;DHT22;11349;53.412;-1.328;2023-04-06T03:37:05;10.80;99.90
22364;DHT22;11349;53.412;-1.328;2023-04-06T03:39:30;10.70;99.90
22364;DHT22;11349;53.412;-1.328;2023-04-06T03:41:57;10.60;99.90
22364;DHT22;11349;53.412;-1.328;2023-04-06T03:44:22;10.60;99.90
22364;DHT22;11349;53.412;-1.328;2023-04-06T03:46:48;10.50;99.90
22364;DHT22;11349;53.412;-1.328;2023-04-06T03:49:14;10.40;99.90
22364;DHT22;11349;53.412;-1.328;2023-04-06T03:51:39;10.30;99.90
22364;DHT22;11349;53.412;-1.328;2023-04-06T03:54:05;10.30;99.90
22364;DHT22;11349;53.412;-1.328;2023-04-06T03:56:31;10.20;99.90
22364;DHT22;11349;53.412;-1.328;2023-04-06T03:58:56;10.20;99.90
22364;DHT22;11349;53.412;-1.328;2023-04-06T04:01:22;10.20;99.90
22364;DHT22;11349;53.412;-1.328;2023-04-06T04:03:48;10.20;99.90
22364;DHT22;11349;53.412;-1.328;2023-04-06T04:06:14;10.10;99.90
22364;DHT22;11349;53.412;-1.328;2023-04-06T04:08:39;10.10;99.90
22364;DHT22;11349;53.412;-1.328;2023-04-06T04:11:05;10.10;99.90
22364;DHT22;11349;53.412;-1.328;2023-04-06T04:13:31;10.00;99.90
22364;DHT22;11349;53.412;-1.328;2023-04-06T04:15:56;10.00;99.90
22364;DHT22;11349;53.412;-1.328;2023-04-06T04:18:22;10.00;99.90
22364;DHT22;11349;53.412;-1.328;2023-04-06T04:20:48;10.00;99.90
22364;DHT22;11349;53.412;-1.328;2023-04-06T04:23:13;9.90;99.90
22364;DHT22;11349;53.412;-1.328;2023-04-06T04:25:40;10.00;99.90
22364;DHT22;11349;53.412;-1.328;2023-04-06T04:28:06;10.00;99.90
22364;DHT22;11349;53.412;-1.328;2023-04-06T04:30:31;10.00;99.90
22364;DHT22;11349;53.412;-1.328;2023-04-06T04:32:57;10.00;99.90
22364;DHT22;11349;53.412;-1.328;2023-04-06T04:35:23;10.00;99.90
22364;DHT22;11349;53.412;-1.328;2023-04-06T04:37:49;10.00;99.90
22364;DHT22;11349;53.412;-1.328;2023-04-06T04:40:14;10.00;99.90
22364;DHT22;11349;53.412;-1.328;2023-04-06T04:42:42;10.00;99.90
22364;DHT22;11349;53.412;-1.328;2023-04-06T04:45:07;9.90;99.90
22364;DHT22;11349;53.412;-1.328;2023-04-06T04:47:33;9.90;99.90
22364;DHT22;11349;53.412;-1.328;2023-04-06T04:49:59;9.80;99.90
22364;DHT22;11349;53.412;-1.328;2023-04-06T04:52:25;9.80;99.90
22364;DHT22;11349;53.412;-1.328;2023-04-06T04:54:51;9.80;99.90
22364;DHT22;11349;53.412;-1.328;2023-04-06T04:57:16;9.90;99.90
22364;DHT22;11349;53.412;-1.328;2023-04-06T04:59:43;9.90;99.90
22364;DHT22;11349;53.412;-1.328;2023-04-06T05:02:08;9.90;99.90
22364;DHT22;11349;53.412;-1.328;2023-04-06T05:04:35;9.90;99.90
22364;DHT22;11349;53.412;-1.328;2023-04-06T05:07:08;9.90;99.90
22364;DHT22;11349;53.412;-1.328;2023-04-06T05:09:34;10.00;99.90
22364;DHT22;11349;53.412;-1.328;2023-04-06T05:12:00;10.00;99.90
22364;DHT22;11349;53.412;-1.328;2023-04-06T05:14:27;10.00;99.90
22364;DHT22;11349;53.412;-1.328;2023-04-06T05:16:53;10.00;99.90
22364;DHT22;11349;53.412;-1.328;2023-04-06T05:19:20;10.00;99.90
22364;DHT22;11349;53.412;-1.328;2023-04-06T05:21:45;10.00;99.90
22364;DHT22;11349;53.412;-1.328;2023-04-06T05:24:11;10.00;99.90
22364;DHT22;11349;53.412;-1.328;2023-04-06T05:26:37;10.00;99.90
22364;DHT22;11349;53.412;-1.328;2023-04-06T05:29:03;10.00;99.90
22364;DHT22;11349;53.412;-1.328;2023-04-06T05:31:29;10.00;99.90
22364;DHT22;11349;53.412;-1.328;2023-04-06T05:33:56;10.00;99.90
22364;DHT22;11349;53.412;-1.328;2023-04-06T05:36:24;10.00;99.90
22364;DHT22;11349;53.412;-1.328;2023-04-06T05:38:50;10.10;99.90
22364;DHT22;11349;53.412;-1.328;2023-04-06T05:41:18;10.00;99.90
22364;DHT22;11349;53.412;-1.328;2023-04-06T05:43:44;10.10;99.90
22364;DHT22;11349;53.412;-1.328;2023-04-06T05:46:10;10.10;99.90
22364;DHT22;11349;53.412;-1.328;2023-04-06T05:48:36;10.10;99.90
22364;DHT22;11349;53.412;-1.328;2023-04-06T05:51:01;10.10;99.90
22364;DHT22;11349;53.412;-1.328;2023-04-06T05:53:31;10.10;99.90
22364;DHT22;11349;53.412;-1.328;2023-04-06T05:56:00;10.10;99.90
22364;DHT22;11349;53.412;-1.328;2023-04-06T05:58:26;10.10;99.90
22364;DHT22;11349;53.412;-1.328;2023-04-06T06:00:59;10.10;99.90
22364;DHT22;11349;53.412;-1.328;2023-04-06T06:03:26;10.20;99.90
22364;DHT22;11349;53.412;-1.328;2023-04-06T06:05:51;10.20;99.90
22364;DHT22;11349;53.412;-1.328;2023-04-06T06:08:17;10.20;99.90
22364;DHT22;11349;53.412;-1.328;2023-04-06T06:10:43;10.20;99.90
22364;DHT22;11349;53.412;-1.328;2023-04-06T06:13:09;10.20;99.90
22364;DHT22;11349;53.412;-1.328;2023-04-06T06:15:35;10.20;99.90
22364;DHT22;11349;53.412;-1.328;2023-04-06T06:18:01;10.20;99.90
22364;DHT22;11349;53.412;-1.328;2023-04-06T06:20:27;10.20;99.90
22364;DHT22;11349;53.412;-1.328;2023-04-06T06:22:53;10.20;99.90
22364;DHT22;11349;53.412;-1.328;2023-04-06T06:25:18;10.20;99.90
22364;DHT22;11349;53.412;-1.328;2023-04-06T06:27:44;10.30;99.90
22364;DHT22;11349;53.412;-1.328;2023-04-06T06:30:10;10.20;99.90
22364;DHT22;11349;53.412;-1.328;2023-04-06T06:32:36;10.20;99.90
22364;DHT22;11349;53.412;-1.328;2023-04-06T06:35:01;10.30;99.90
22364;DHT22;11349;53.412;-1.328;2023-04-06T06:37:28;10.30;99.90
22364;DHT22;11349;53.412;-1.328;2023-04-06T06:39:53;10.30;99.90
22364;DHT22;11349;53.412;-1.328;2023-04-06T06:42:19;10.30;99.90
22364;DHT22;11349;53.412;-1.328;2023-04-06T06:44:45;10.40;99.90
22364;DHT22;11349;53.412;-1.328;2023-04-06T06:47:11;10.40;99.90
22364;DHT22;11349;53.412;-1.328;2023-04-06T06:49:37;10.40;99.90
22364;DHT22;11349;53.412;-1.328;2023-04-06T06:52:02;10.40;99.90
22364;DHT22;11349;53.412;-1.328;2023-04-06T06:54:28;10.40;99.90
22364;DHT22;11349;53.412;-1.328;2023-04-06T06:56:54;10.50;99.90
22364;DHT22;11349;53.412;-1.328;2023-04-06T06:59:20;10.50;99.90
22364;DHT22;11349;53.412;-1.328;2023-04-06T07:01:46;10.60;99.90
22364;DHT22;11349;53.412;-1.328;2023-04-06T07:04:12;10.60;99.90
22364;DHT22;11349;53.412;-1.328;2023-04-06T07:06:37;10.80;99.90
22364;DHT22;11349;53.412;-1.328;2023-04-06T07:09:03;10.90;99.90
22364;DHT22;11349;53.412;-1.328;2023-04-06T07:11:32;11.00;99.90
22364;DHT22;11349;53.412;-1.328;2023-04-06T07:13:58;11.10;99.90
22364;DHT22;11349;53.412;-1.328;2023-04-06T07:16:23;11.00;99.90
22364;DHT22;11349;53.412;-1.328;2023-04-06T07:18:49;10.90;99.90
22364;DHT22;11349;53.412;-1.328;2023-04-06T07:21:15;10.90;99.90
22364;DHT22;11349;53.412;-1.328;2023-04-06T07:23:41;10.80;99.90
22364;DHT22;11349;53.412;-1.328;2023-04-06T07:26:07;10.80;99.90
22364;DHT22;11349;53.412;-1.328;2023-04-06T07:28:33;10.80;99.90
22364;DHT22;11349;53.412;-1.328;2023-04-06T07:30:59;10.80;99.90
22364;DHT22;11349;53.412;-1.328;2023-04-06T07:33:25;10.70;99.90
22364;DHT22;11349;53.412;-1.328;2023-04-06T07:35:55;10.70;99.90
22364;DHT22;11349;53.412;-1.328;2023-04-06T07:38:21;10.60;99.90
22364;DHT22;11349;53.412;-1.328;2023-04-06T07:40:47;10.70;99.90
22364;DHT22;11349;53.412;-1.328;2023-04-06T07:43:12;10.70;99.90
22364;DHT22;11349;53.412;-1.328;2023-04-06T07:45:38;10.70;99.90
22364;DHT22;11349;53.412;-1.328;2023-04-06T07:48:04;10.70;99.90
22364;DHT22;11349;53.412;-1.328;2023-04-06T07:50:30;10.70;99.90
22364;DHT22;11349;53.412;-1.328;2023-04-06T07:52:55;10.70;99.90
22364;DHT22;11349;53.412;-1.328;2023-04-06T07:55:21;10.80;99.90
22364;DHT22;11349;53.412;-1.328;2023-04-06T07:57:47;10.70;99.90
22364;DHT22;11349;53.412;-1.328;2023-04-06T08:00:13;10.70;99.90
22364;DHT22;11349;53.412;-1.328;2023-04-06T08:02:39;10.70;99.90
22364;DHT22;11349;53.412;-1.328;2023-04-06T08:05:05;10.70;99.90
22364;DHT22;11349;53.412;-1.328;2023-04-06T08:07:31;10.70;99.90
22364;DHT22;11349;53.412;-1.328;2023-04-06T08:09:57;10.80;99.90
22364;DHT22;11349;53.412;-1.328;2023-04-06T08:12:23;10.80;99.90
22364;DHT22;11349;53.412;-1.328;2023-04-06T08:14:48;10.80;99.90
22364;DHT22;11349;53.412;-1.328;2023-04-06T08:17:14;10.80;99.90
22364;DHT22;11349;53.412;-1.328;2023-04-06T08:19:42;10.90;99.90
22364;DHT22;11349;53.412;-1.328;2023-04-06T08:22:09;11.00;99.90
22364;DHT22;11349;53.412;-1.328;2023-04-06T08:24:34;11.00;99.90
22364;DHT22;11349;53.412;-1.328;2023-04-06T08:27:00;11.10;99.90
22364;DHT22;11349;53.412;-1.328;2023-04-06T08:29:26;11.40;99.90
22364;DHT22;11349;53.412;-1.328;2023-04-06T08:31:52;11.80;99.90
22364;DHT22;11349;53.412;-1.328;2023-04-06T08:34:17;12.00;99.90
22364;DHT22;11349;53.412;-1.328;2023-04-06T08:36:43;11.90;99.90
22364;DHT22;11349;53.412;-1.328;2023-04-06T08:39:09;11.80;99.90
22364;DHT22;11349;53.412;-1.328;2023-04-06T08:41:35;12.10;99.90
22364;DHT22;11349;53.412;-1.328;2023-04-06T08:44:02;12.50;99.90
22364;DHT22;11349;53.412;-1.328;2023-04-06T08:46:31;13.10;99.90
22364;DHT22;11349;53.412;-1.328;2023-04-06T08:48:58;13.50;99.90
22364;DHT22;11349;53.412;-1.328;2023-04-06T08:51:24;13.80;99.90
22364;DHT22;11349;53.412;-1.328;2023-04-06T08:53:57;13.80;99.90
22364;DHT22;11349;53.412;-1.328;2023-04-06T08:56:27;13.90;99.90
22364;DHT22;11349;53.412;-1.328;2023-04-06T08:58:55;14.00;99.90
22364;DHT22;11349;53.412;-1.328;2023-04-06T09:01:28;14.00;99.90
22364;DHT22;11349;53.412;-1.328;2023-04-06T09:03:59;14.00;99.90
22364;DHT22;11349;53.412;-1.328;2023-04-06T09:06:30;14.20;99.90
22364;DHT22;11349;53.412;-1.328;2023-04-06T09:08:57;14.30;99.90
22364;DHT22;11349;53.412;-1.328;2023-04-06T09:11:23;14.40;99.90
22364;DHT22;11349;53.412;-1.328;2023-04-06T09:13:53;14.30;99.90
22364;DHT22;11349;53.412;-1.328;2023-04-06T09:16:20;14.30;99.90
22364;DHT22;11349;53.412;-1.328;2023-04-06T09:18:46;14.30;99.90
22364;DHT22;11349;53.412;-1.328;2023-04-06T09:21:12;14.00;99.90
22364;DHT22;11349;53.412;-1.328;2023-04-06T09:23:39;13.90;99.90
22364;DHT22;11349;53.412;-1.328;2023-04-06T09:26:16;14.30;99.90
22364;DHT22;11349;53.412;-1.328;2023-04-06T09:28:55;14.40;99.90
22364;DHT22;11349;53.412;-1.328;2023-04-06T09:31:26;14.30;99.90
22364;DHT22;11349;53.412;-1.328;2023-04-06T09:33:52;14.10;99.90
22364;DHT22;11349;53.412;-1.328;2023-04-06T09:36:19;14.00;99.90
22364;DHT22;11349;53.412;-1.328;2023-04-06T09:38:59;13.90;99.90
22364;DHT22;11349;53.412;-1.328;2023-04-06T09:41:27;14.00;99.90
22364;DHT22;11349;53.412;-1.328;2023-04-06T09:46:33;13.80;99.90
22364;DHT22;11349;53.412;-1.328;2023-04-06T09:49:02;13.90;99.90
22364;DHT22;11349;53.412;-1.328;2023-04-06T09:51:31;13.90;99.90
22364;DHT22;11349;53.412;-1.328;2023-04-06T09:53:57;13.90;99.90
22364;DHT22;11349;53.412;-1.328;2023-04-06T09:57:07;14.20;99.90
22364;DHT22;11349;53.412;-1.328;2023-04-06T09:59:50;14.10;99.90
22364;DHT22;11349;53.412;-1.328;2023-04-06T10:08:11;14.00;99.90
22364;DHT22;11349;53.412;-1.328;2023-04-06T10:10:37;14.10;99.90
22364;DHT22;11349;53.412;-1.328;2023-04-06T10:13:07;14.00;99.90
22364;DHT22;11349;53.412;-1.328;2023-04-06T10:15:36;13.80;99.90
22364;DHT22;11349;53.412;-1.328;2023-04-06T10:18:03;13.70;99.90
22364;DHT22;11349;53.412;-1.328;2023-04-06T10:20:38;13.80;99.90
22364;DHT22;11349;53.412;-1.328;2023-04-06T10:25:33;13.90;99.90
22364;DHT22;11349;53.412;-1.328;2023-04-06T10:28:07;14.00;99.90
22364;DHT22;11349;53.412;-1.328;2023-04-06T10:30:35;14.00;99.90
22364;DHT22;11349;53.412;-1.328;2023-04-06T10:33:18;14.00;99.90
22364;DHT22;11349;53.412;-1.328;2023-04-06T10:35:44;14.00;99.90
22364;DHT22;11349;53.412;-1.328;2023-04-06T10:38:10;13.80;99.90
22364;DHT22;11349;53.412;-1.328;2023-04-06T10:40:40;13.80;99.90
22364;DHT22;11349;53.412;-1.328;2023-04-06T10:43:11;13.80;99.90
22364;DHT22;11349;53.412;-1.328;2023-04-06T10:45:38;14.00;99.90
22364;DHT22;11349;53.412;-1.328;2023-04-06T10:48:15;14.00;99.90
22364;DHT22;11349;53.412;-1.328;2023-04-06T10:50:46;14.00;99.90
22364;DHT22;11349;53.412;-1.328;2023-04-06T10:53:21;14.00;99.90
22364;DHT22;11349;53.412;-1.328;2023-04-06T10:55:47;14.10;99.90
22364;DHT22;11349;53.412;-1.328;2023-04-06T10:58:14;13.90;99.90
22364;DHT22;11349;53.412;-1.328;2023-04-06T11:00:48;13.90;99.90
22364;DHT22;11349;53.412;-1.328;2023-04-06T11:03:14;13.90;99.90
22364;DHT22;11349;53.412;-1.328;2023-04-06T11:05:47;14.10;99.90
22364;DHT22;11349;53.412;-1.328;2023-04-06T11:08:27;14.10;99.90
22364;DHT22;11349;53.412;-1.328;2023-04-06T11:11:04;13.90;99.90
22364;DHT22;11349;53.412;-1.328;2023-04-06T11:13:57;13.80;99.90
22364;DHT22;11349;53.412;-1.328;2023-04-06T11:16:24;13.80;99.90
22364;DHT22;11349;53.412;-1.328;2023-04-06T11:18:59;13.60;99.90
22364;DHT22;11349;53.412;-1.328;2023-04-06T11:21:40;13.50;99.90
22364;DHT22;11349;53.412;-1.328;2023-04-06T11:24:12;13.50;99.90
22364;DHT22;11349;53.412;-1.328;2023-04-06T11:26:42;13.60;99.90
22364;DHT22;11349;53.412;-1.328;2023-04-06T11:29:09;13.60;99.90
22364;DHT22;11349;53.412;-1.328;2023-04-06T11:31:49;13.70;99.90
22364;DHT22;11349;53.412;-1.328;2023-04-06T11:34:22;13.90;99.90
22364;DHT22;11349;53.412;-1.328;2023-04-06T11:36:54;13.90;99.90
22364;DHT22;11349;53.412;-1.328;2023-04-06T11:39:21;13.80;99.90
22364;DHT22;11349;53.412;-1.328;2023-04-06T11:41:49;13.60;99.90
22364;DHT22;11349;53.412;-1.328;2023-04-06T11:44:26;13.50;99.90
22364;DHT22;11349;53.412;-1.328;2023-04-06T11:46:53;13.60;99.90
22364;DHT22;11349;53.412;-1.328;2023-04-06T11:49:19;13.60;99.90
22364;DHT22;11349;53.412;-1.328;2023-04-06T11:51:46;13.70;99.90
22364;DHT22;11349;53.412;-1.328;2023-04-06T11:54:11;13.60;99.90
22364;DHT22;11349;53.412;-1.328;2023-04-06T11:56:38;13.60;99.90
22364;DHT22;11349;53.412;-1.328;2023-04-06T11:59:04;13.60;99.90
22364;DHT22;11349;53.412;-1.328;2023-04-06T12:01:29;13.60;99.90
22364;DHT22;11349;53.412;-1.328;2023-04-06T12:03:55;13.80;99.90
22364;DHT22;11349;53.412;-1.328;2023-04-06T12:06:21;13.80;99.90
22364;DHT22;11349;53.412;-1.328;2023-04-06T12:08:48;13.80;99.90
22364;DHT22;11349;53.412;-1.328;2023-04-06T12:11:14;13.80;99.90
22364;DHT22;11349;53.412;-1.328;2023-04-06T12:13:40;13.80;99.90
22364;DHT22;11349;53.412;-1.328;2023-04-06T12:16:05;13.80;99.90
22364;DHT22;11349;53.412;-1.328;2023-04-06T12:18:31;13.70;99.90
22364;DHT22;11349;53.412;-1.328;2023-04-06T12:20:57;13.60;99.90
22364;DHT22;11349;53.412;-1.328;2023-04-06T12:23:23;13.50;99.90
22364;DHT22;11349;53.412;-1.328;2023-04-06T12:25:49;13.50;99.90
22364;DHT22;11349;53.412;-1.328;2023-04-06T12:28:15;13.30;99.90
22364;DHT22;11349;53.412;-1.328;2023-04-06T12:30:41;13.30;99.90
22364;DHT22;11349;53.412;-1.328;2023-04-06T12:33:06;13.30;99.90
22364;DHT22;11349;53.412;-1.328;2023-04-06T12:35:36;13.40;99.90
22364;DHT22;11349;53.412;-1.328;2023-04-06T12:38:02;13.50;99.90
22364;DHT22;11349;53.412;-1.328;2023-04-06T12:40:28;13.60;99.90
22364;DHT22;11349;53.412;-1.328;2023-04-06T12:42:53;13.80;99.90
22364;DHT22;11349;53.412;-1.328;2023-04-06T12:45:22;13.90;99.90
22364;DHT22;11349;53.412;-1.328;2023-04-06T12:47:48;13.90;99.90
22364;DHT22;11349;53.412;-1.328;2023-04-06T12:50:14;13.90;99.90
22364;DHT22;11349;53.412;-1.328;2023-04-06T12:52:40;14.00;99.90
22364;DHT22;11349;53.412;-1.328;2023-04-06T12:55:06;13.90;99.90
22364;DHT22;11349;53.412;-1.328;2023-04-06T12:57:32;13.90;99.90
22364;DHT22;11349;53.412;-1.328;2023-04-06T12:59:57;13.80;99.90
22364;DHT22;11349;53.412;-1.328;2023-04-06T13:02:24;13.70;99.90
22364;DHT22;11349;53.412;-1.328;2023-04-06T13:04:50;13.60;99.90
22364;DHT22;11349;53.412;-1.328;2023-04-06T13:07:16;13.60;99.90
22364;DHT22;11349;53.412;-1.328;2023-04-06T13:09:42;13.60;99.90
22364;DHT22;11349;53.412;-1.328;2023-04-06T13:12:08;13.80;99.90
22364;DHT22;11349;53.412;-1.328;2023-04-06T13:14:33;13.80;99.90
22364;DHT22;11349;53.412;-1.328;2023-04-06T13:17:00;13.90;99.90
22364;DHT22;11349;53.412;-1.328;2023-04-06T13:19:26;13.80;99.90
22364;DHT22;11349;53.412;-1.328;2023-04-06T13:21:51;13.70;99.90
22364;DHT22;11349;53.412;-1.328;2023-04-06T13:24:17;13.80;99.90
22364;DHT22;11349;53.412;-1.328;2023-04-06T13:26:43;13.80;99.80
22364;DHT22;11349;53.412;-1.328;2023-04-06T13:29:09;13.90;99.90
22364;DHT22;11349;53.412;-1.328;2023-04-06T13:31:35;14.00;99.30
22364;DHT22;11349;53.412;-1.328;2023-04-06T13:34:00;13.90;98.80
22364;DHT22;11349;53.412;-1.328;2023-04-06T13:36:26;13.90;99.90
22364;DHT22;11349;53.412;-1.328;2023-04-06T13:38:52;14.10;99.10
22364;DHT22;11349;53.412;-1.328;2023-04-06T13:41:24;14.10;99.20
22364;DHT22;11349;53.412;-1.328;2023-04-06T13:43:52;14.20;99.90
22364;DHT22;11349;53.412;-1.328;2023-04-06T13:46:18;14.40;99.60
22364;DHT22;11349;53.412;-1.328;2023-04-06T13:48:44;14.50;98.60
22364;DHT22;11349;53.412;-1.328;2023-04-06T13:51:11;14.50;98.10
22364;DHT22;11349;53.412;-1.328;2023-04-06T13:53:37;14.40;96.40
22364;DHT22;11349;53.412;-1.328;2023-04-06T13:56:03;14.30;97.30
22364;DHT22;11349;53.412;-1.328;2023-04-06T13:58:29;14.30;98.20
22364;DHT22;11349;53.412;-1.328;2023-04-06T14:00:55;14.30;96.40
22364;DHT22;11349;53.412;-1.328;2023-04-06T14:03:22;14.30;95.50
22364;DHT22;11349;53.412;-1.328;2023-04-06T14:05:48;14.20;95.00
22364;DHT22;11349;53.412;-1.328;2023-04-06T14:08:13;14.30;97.20
22364;DHT22;11349;53.412;-1.328;2023-04-06T14:10:40;14.30;95.20
22364;DHT22;11349;53.412;-1.328;2023-04-06T14:13:07;14.10;96.10
22364;DHT22;11349;53.412;-1.328;2023-04-06T14:15:34;14.00;96.20
22364;DHT22;11349;53.412;-1.328;2023-04-06T14:18:00;14.00;96.80
22364;DHT22;11349;53.412;-1.328;2023-04-06T14:20:25;13.90;96.20
22364;DHT22;11349;53.412;-1.328;2023-04-06T14:22:53;13.80;97.20
22364;DHT22;11349;53.412;-1.328;2023-04-06T14:25:21;13.80;97.10
22364;DHT22;11349;53.412;-1.328;2023-04-06T14:27:47;13.70;97.70
22364;DHT22;11349;53.412;-1.328;2023-04-06T14:30:13;13.70;97.10
22364;DHT22;11349;53.412;-1.328;2023-04-06T14:32:41;13.60;97.70
22364;DHT22;11349;53.412;-1.328;2023-04-06T14:35:07;13.60;96.60
22364;DHT22;11349;53.412;-1.328;2023-04-06T14:37:33;13.50;95.80
22364;DHT22;11349;53.412;-1.328;2023-04-06T14:39:59;13.50;97.50
22364;DHT22;11349;53.412;-1.328;2023-04-06T14:42:24;13.50;98.50
22364;DHT22;11349;53.412;-1.328;2023-04-06T14:44:50;13.80;99.90
22364;DHT22;11349;53.412;-1.328;2023-04-06T14:47:16;13.80;98.70
22364;DHT22;11349;53.412;-1.328;2023-04-06T14:49:46;13.70;97.90
22364;DHT22;11349;53.412;-1.328;2023-04-06T14:52:13;13.70;96.80
22364;DHT22;11349;53.412;-1.328;2023-04-06T14:54:38;13.70;98.80
22364;DHT22;11349;53.412;-1.328;2023-04-06T14:57:04;13.60;95.00
22364;DHT22;11349;53.412;-1.328;2023-04-06T14:59:30;13.60;96.80
22364;DHT22;11349;53.412;-1.328;2023-04-06T15:01:58;13.50;94.00
22364;DHT22;11349;53.412;-1.328;2023-04-06T15:04:25;13.40;95.40
22364;DHT22;11349;53.412;-1.328;2023-04-06T15:06:51;13.50;94.20
22364;DHT22;11349;53.412;-1.328;2023-04-06T15:09:16;13.40;95.10
22364;DHT22;11349;53.412;-1.328;2023-04-06T15:11:42;13.40;93.80
22364;DHT22;11349;53.412;-1.328;2023-04-06T15:14:08;13.50;93.80
22364;DHT22;11349;53.412;-1.328;2023-04-06T15:16:33;13.40;94.00
22364;DHT22;11349;53.412;-1.328;2023-04-06T15:19:00;13.40;93.50
22364;DHT22;11349;53.412;-1.328;2023-04-06T15:21:26;13.30;93.60
22364;DHT22;11349;53.412;-1.328;2023-04-06T15:23:52;13.40;94.40
22364;DHT22;11349;53.412;-1.328;2023-04-06T15:26:18;13.30;91.80